sensor_id;sensor_type;location;lat;lon;timestamp;temperature;humidity
2439;DHT22;14509;47.992;7.848;2022-08-04T00:00:52;27.40;40.70
2439;DHT22;14509;47.992;7.848;2022-08-04T00:03:05;27.40;40.70
2439;DHT22;14509;47.992;7.848;2022-08-04T00:05:15;27.40;40.80
2439;DHT22;14509;47.992;7.848;2022-08-04T00:07:25;27.40;40.80
2439;DHT22;14509;47.992;7.848;2022-08-04T00:09:32;27.30;40.80
2439;DHT22;14509;47.992;7.848;2022-08-04T00:11:44;27.30;40.80
2439;DHT22;14509;47.992;7.848;2022-08-04T00:13:51;27.30;40.90
2439;DHT22;14509;47.992;7.848;2022-08-04T00:15:57;27.30;40.90
2439;DHT22;14509;47.992;7.848;2022-08-04T00:18:00;27.50;41.00
2439;DHT22;14509;47.992;7.848;2022-08-04T00:20:05;27.30;40.90
2439;DHT22;14509;47.992;7.848;2022-08-04T00:22:10;27.20;40.90
2439;DHT22;14509;47.992;7.848;2022-08-04T00:24:15;27.20;40.90
2439;DHT22;14509;47.992;7.848;2022-08-04T00:26:17;27.40;41.10
2439;DHT22;14509;47.992;7.848;2022-08-04T00:28:21;27.20;41.10
2439;DHT22;14509;47.992;7.848;2022-08-04T00:30:24;27.20;41.20
2439;DHT22;14509;47.992;7.848;2022-08-04T00:32:26;27.20;41.10
2439;DHT22;14509;47.992;7.848;2022-08-04T00:34:29;27.10;41.10
2439;DHT22;14509;47.992;7.848;2022-08-04T00:36:32;27.10;41.30
2439;DHT22;14509;47.992;7.848;2022-08-04T00:38:35;27.10;41.30
2439;DHT22;14509;47.992;7.848;2022-08-04T00:40:46;27.10;41.50
2439;DHT22;14509;47.992;7.848;2022-08-04T00:42:57;27.10;41.40
2439;DHT22;14509;47.992;7.848;2022-08-04T00:45:28;27.00;41.40
2439;DHT22;14509;47.992;7.848;2022-08-04T00:47:40;27.00;41.40
2439;DHT22;14509;47.992;7.848;2022-08-04T00:50:01;27.00;41.60
2439;DHT22;14509;47.992;7.848;2022-08-04T00:52:15;27.00;41.70
2439;DHT22;14509;47.992;7.848;2022-08-04T00:54:26;26.90;41.70
2439;DHT22;14509;47.992;7.848;2022-08-04T00:57:01;26.90;42.40
2439;DHT22;14509;47.992;7.848;2022-08-04T00:59:10;26.90;42.00
2439;DHT22;14509;47.992;7.848;2022-08-04T01:01:26;26.90;42.00
2439;DHT22;14509;47.992;7.848;2022-08-04T01:03:41;27.00;42.00
2439;DHT22;14509;47.992;7.848;2022-08-04T01:05:55;26.80;41.90
2439;DHT22;14509;47.992;7.848;2022-08-04T01:08:10;26.90;42.10
2439;DHT22;14509;47.992;7.848;2022-08-04T01:10:23;26.80;42.20
2439;DHT22;14509;47.992;7.848;2022-08-04T01:12:41;26.80;42.30
2439;DHT22;14509;47.992;7.848;2022-08-04T01:14:54;26.70;42.20
2439;DHT22;14509;47.992;7.848;2022-08-04T01:17:11;26.70;42.10
2439;DHT22;14509;47.992;7.848;2022-08-04T01:19:35;26.70;42.00
2439;DHT22;14509;47.992;7.848;2022-08-04T01:22:16;26.70;41.90
2439;DHT22;14509;47.992;7.848;2022-08-04T01:24:37;26.70;41.90
2439;DHT22;14509;47.992;7.848;2022-08-04T01:26:52;26.80;41.90
2439;DHT22;14509;47.992;7.848;2022-08-04T01:29:05;26.90;41.90
2439;DHT22;14509;47.992;7.848;2022-08-04T01:31:20;26.80;41.70
2439;DHT22;14509;47.992;7.848;2022-08-04T01:33:26;26.80;41.70
2439;DHT22;14509;47.992;7.848;2022-08-04T01:35:35;26.80;41.60
2439;DHT22;14509;47.992;7.848;2022-08-04T01:37:47;26.80;41.60
2439;DHT22;14509;47.992;7.848;2022-08-04T01:39:59;26.80;41.50
2439;DHT22;14509;47.992;7.848;2022-08-04T01:42:03;26.80;41.50
2439;DHT22;14509;47.992;7.848;2022-08-04T01:44:09;26.90;41.40
2439;DHT22;14509;47.992;7.848;2022-08-04T01:46:12;26.90;41.40
2439;DHT22;14509;47.992;7.848;2022-08-04T01:48:14;26.90;41.30
2439;DHT22;14509;47.992;7.848;2022-08-04T01:50:17;26.80;41.30
2439;DHT22;14509;47.992;7.848;2022-08-04T01:52:20;26.80;41.30
2439;DHT22;14509;47.992;7.848;2022-08-04T01:54:25;26.90;41.30
2439;DHT22;14509;47.992;7.848;2022-08-04T01:56:27;26.80;41.30
2439;DHT22;14509;47.992;7.848;2022-08-04T01:58:32;26.90;41.40
2439;DHT22;14509;47.992;7.848;2022-08-04T02:00:38;26.80;42.00
2439;DHT22;14509;47.992;7.848;2022-08-04T02:02:44;26.80;41.40
2439;DHT22;14509;47.992;7.848;2022-08-04T02:04:46;26.80;41.40
2439;DHT22;14509;47.992;7.848;2022-08-04T02:06:59;26.80;41.30
2439;DHT22;14509;47.992;7.848;2022-08-04T02:09:08;26.80;41.40
2439;DHT22;14509;47.992;7.848;2022-08-04T02:11:16;26.80;41.40
2439;DHT22;14509;47.992;7.848;2022-08-04T02:13:22;26.90;41.50
2439;DHT22;14509;47.992;7.848;2022-08-04T02:15:27;27.70;42.00
2439;DHT22;14509;47.992;7.848;2022-08-04T02:17:39;26.80;41.60
2439;DHT22;14509;47.992;7.848;2022-08-04T02:20:02;26.50;41.30
2439;DHT22;14509;47.992;7.848;2022-08-04T02:22:07;26.70;41.60
2439;DHT22;14509;47.992;7.848;2022-08-04T02:24:14;26.70;41.60
2439;DHT22;14509;47.992;7.848;2022-08-04T02:26:18;26.70;41.70
2439;DHT22;14509;47.992;7.848;2022-08-04T02:28:32;26.70;41.70
2439;DHT22;14509;47.992;7.848;2022-08-04T02:30:40;26.60;41.70
2439;DHT22;14509;47.992;7.848;2022-08-04T02:32:46;26.70;41.80
2439;DHT22;14509;47.992;7.848;2022-08-04T02:34:53;26.60;41.80
2439;DHT22;14509;47.992;7.848;2022-08-04T02:36:59;26.60;41.90
2439;DHT22;14509;47.992;7.848;2022-08-04T02:39:05;26.60;41.90
2439;DHT22;14509;47.992;7.848;2022-08-04T02:41:08;26.60;42.00
2439;DHT22;14509;47.992;7.848;2022-08-04T02:43:10;26.50;42.00
2439;DHT22;14509;47.992;7.848;2022-08-04T02:45:17;26.60;42.10
2439;DHT22;14509;47.992;7.848;2022-08-04T02:47:20;26.50;42.30
2439;DHT22;14509;47.992;7.848;2022-08-04T02:49:25;26.50;42.40
2439;DHT22;14509;47.992;7.848;2022-08-04T02:51:30;26.50;42.40
2439;DHT22;14509;47.992;7.848;2022-08-04T02:53:34;26.50;42.40
2439;DHT22;14509;47.992;7.848;2022-08-04T02:55:39;26.50;42.50
2439;DHT22;14509;47.992;7.848;2022-08-04T02:57:44;26.50;42.40
2439;DHT22;14509;47.992;7.848;2022-08-04T03:00:05;26.50;42.40
2439;DHT22;14509;47.992;7.848;2022-08-04T03:02:08;26.50;42.40
2439;DHT22;14509;47.992;7.848;2022-08-04T03:04:21;26.40;42.30
2439;DHT22;14509;47.992;7.848;2022-08-04T03:06:52;26.40;42.40
2439;DHT22;14509;47.992;7.848;2022-08-04T03:09:17;26.40;42.30
2439;DHT22;14509;47.992;7.848;2022-08-04T03:19:57;26.30;42.70
2439;DHT22;14509;47.992;7.848;2022-08-04T03:25:13;26.20;43.00
2439;DHT22;14509;47.992;7.848;2022-08-04T03:27:46;26.20;43.10
2439;DHT22;14509;47.992;7.848;2022-08-04T03:30:04;26.10;43.30
2439;DHT22;14509;47.992;7.848;2022-08-04T03:35:02;26.00;43.60
2439;DHT22;14509;47.992;7.848;2022-08-04T03:37:38;25.90;43.70
2439;DHT22;14509;47.992;7.848;2022-08-04T03:40:22;25.90;43.70
2439;DHT22;14509;47.992;7.848;2022-08-04T03:42:53;25.90;43.80
2439;DHT22;14509;47.992;7.848;2022-08-04T03:47:54;25.80;43.90
2439;DHT22;14509;47.992;7.848;2022-08-04T03:52:50;25.70;44.00
2439;DHT22;14509;47.992;7.848;2022-08-04T04:00:30;25.80;44.10
2439;DHT22;14509;47.992;7.848;2022-08-04T04:03:00;25.70;44.10
2439;DHT22;14509;47.992;7.848;2022-08-04T04:08:06;25.70;44.10
2439;DHT22;14509;47.992;7.848;2022-08-04T04:10:28;25.70;44.10
2439;DHT22;14509;47.992;7.848;2022-08-04T04:12:56;25.70;44.20
2439;DHT22;14509;47.992;7.848;2022-08-04T04:15:12;25.70;44.20
2439;DHT22;14509;47.992;7.848;2022-08-04T04:17:38;25.70;44.30
2439;DHT22;14509;47.992;7.848;2022-08-04T04:20:12;25.70;44.30
2439;DHT22;14509;47.992;7.848;2022-08-04T04:22:39;25.70;44.30
2439;DHT22;14509;47.992;7.848;2022-08-04T04:24:59;25.70;44.20
2439;DHT22;14509;47.992;7.848;2022-08-04T04:27:11;25.70;44.10
2439;DHT22;14509;47.992;7.848;2022-08-04T04:29:42;25.70;44.10
2439;DHT22;14509;47.992;7.848;2022-08-04T04:31:58;25.90;44.20
2439;DHT22;14509;47.992;7.848;2022-08-04T04:34:20;25.80;44.10
2439;DHT22;14509;47.992;7.848;2022-08-04T04:36:34;25.90;44.70
2439;DHT22;14509;47.992;7.848;2022-08-04T04:39:00;25.80;43.90
2439;DHT22;14509;47.992;7.848;2022-08-04T04:41:29;25.90;43.90
2439;DHT22;14509;47.992;7.848;2022-08-04T04:43:47;25.90;43.80
2439;DHT22;14509;47.992;7.848;2022-08-04T04:45:59;25.90;43.80
2439;DHT22;14509;47.992;7.848;2022-08-04T04:48:08;25.90;43.70
2439;DHT22;14509;47.992;7.848;2022-08-04T04:50:22;25.90;43.70
2439;DHT22;14509;47.992;7.848;2022-08-04T04:52:32;26.00;43.70
2439;DHT22;14509;47.992;7.848;2022-08-04T04:54:40;26.00;43.70
2439;DHT22;14509;47.992;7.848;2022-08-04T04:56:47;26.00;43.70
2439;DHT22;14509;47.992;7.848;2022-08-04T04:58:52;26.00;43.80
2439;DHT22;14509;47.992;7.848;2022-08-04T05:03:48;26.00;43.70
2439;DHT22;14509;47.992;7.848;2022-08-04T05:06:09;26.00;43.70
2439;DHT22;14509;47.992;7.848;2022-08-04T05:08:35;26.00;43.70
2439;DHT22;14509;47.992;7.848;2022-08-04T05:10:50;26.10;43.60
2439;DHT22;14509;47.992;7.848;2022-08-04T05:13:04;26.10;43.50
2439;DHT22;14509;47.992;7.848;2022-08-04T05:15:11;26.20;43.50
2439;DHT22;14509;47.992;7.848;2022-08-04T05:17:19;26.30;43.40
2439;DHT22;14509;47.992;7.848;2022-08-04T05:19:27;26.40;43.30
2439;DHT22;14509;47.992;7.848;2022-08-04T05:21:38;26.30;43.20
2439;DHT22;14509;47.992;7.848;2022-08-04T05:23:46;26.40;43.20
2439;DHT22;14509;47.992;7.848;2022-08-04T05:25:52;26.40;43.20
2439;DHT22;14509;47.992;7.848;2022-08-04T05:28:02;26.50;43.30
2439;DHT22;14509;47.992;7.848;2022-08-04T05:30:07;26.50;43.30
2439;DHT22;14509;47.992;7.848;2022-08-04T05:32:12;26.50;43.10
2439;DHT22;14509;47.992;7.848;2022-08-04T05:34:21;26.50;43.00
2439;DHT22;14509;47.992;7.848;2022-08-04T05:36:31;26.80;43.10
2439;DHT22;14509;47.992;7.848;2022-08-04T05:38:38;26.80;43.00
2439;DHT22;14509;47.992;7.848;2022-08-04T05:40:42;26.80;42.90
2439;DHT22;14509;47.992;7.848;2022-08-04T05:42:46;26.80;42.70
2439;DHT22;14509;47.992;7.848;2022-08-04T05:44:49;26.80;42.50
2439;DHT22;14509;47.992;7.848;2022-08-04T05:46:55;26.90;42.40
2439;DHT22;14509;47.992;7.848;2022-08-04T05:48:57;27.00;42.30
2439;DHT22;14509;47.992;7.848;2022-08-04T05:51:00;27.10;42.30
2439;DHT22;14509;47.992;7.848;2022-08-04T05:53:04;27.10;42.20
2439;DHT22;14509;47.992;7.848;2022-08-04T05:55:09;27.20;42.20
2439;DHT22;14509;47.992;7.848;2022-08-04T05:57:12;27.30;42.20
2439;DHT22;14509;47.992;7.848;2022-08-04T05:59:17;27.30;42.00
2439;DHT22;14509;47.992;7.848;2022-08-04T06:01:21;27.40;41.80
2439;DHT22;14509;47.992;7.848;2022-08-04T06:03:25;27.40;41.70
2439;DHT22;14509;47.992;7.848;2022-08-04T06:05:28;27.50;41.60
2439;DHT22;14509;47.992;7.848;2022-08-04T06:07:30;27.60;41.30
2439;DHT22;14509;47.992;7.848;2022-08-04T06:09:32;27.70;41.20
2439;DHT22;14509;47.992;7.848;2022-08-04T06:11:37;27.70;40.80
2439;DHT22;14509;47.992;7.848;2022-08-04T06:13:44;27.80;40.60
2439;DHT22;14509;47.992;7.848;2022-08-04T06:15:49;27.90;40.30
2439;DHT22;14509;47.992;7.848;2022-08-04T06:17:54;28.00;40.00
2439;DHT22;14509;47.992;7.848;2022-08-04T06:19:58;28.10;39.80
2439;DHT22;14509;47.992;7.848;2022-08-04T06:22:03;28.30;39.60
2439;DHT22;14509;47.992;7.848;2022-08-04T06:24:09;28.40;39.30
2439;DHT22;14509;47.992;7.848;2022-08-04T06:26:13;28.50;38.90
2439;DHT22;14509;47.992;7.848;2022-08-04T06:28:20;28.60;38.70
2439;DHT22;14509;47.992;7.848;2022-08-04T06:30:24;28.70;38.60
2439;DHT22;14509;47.992;7.848;2022-08-04T06:32:28;28.80;38.60
2439;DHT22;14509;47.992;7.848;2022-08-04T06:34:36;28.90;38.60
2439;DHT22;14509;47.992;7.848;2022-08-04T06:36:40;29.10;38.50
2439;DHT22;14509;47.992;7.848;2022-08-04T06:38:43;29.10;38.20
2439;DHT22;14509;47.992;7.848;2022-08-04T06:40:45;29.30;38.20
2439;DHT22;14509;47.992;7.848;2022-08-04T06:42:48;29.40;38.00
2439;DHT22;14509;47.992;7.848;2022-08-04T06:44:55;29.50;37.70
2439;DHT22;14509;47.992;7.848;2022-08-04T06:46:59;29.50;37.30
2439;DHT22;14509;47.992;7.848;2022-08-04T06:49:02;29.60;37.10
2439;DHT22;14509;47.992;7.848;2022-08-04T06:51:05;29.70;37.00
2439;DHT22;14509;47.992;7.848;2022-08-04T06:53:08;29.80;36.80
2439;DHT22;14509;47.992;7.848;2022-08-04T06:55:10;29.90;37.00
2439;DHT22;14509;47.992;7.848;2022-08-04T06:57:14;30.00;37.20
2439;DHT22;14509;47.992;7.848;2022-08-04T06:59:17;30.10;37.30
2439;DHT22;14509;47.992;7.848;2022-08-04T07:01:22;30.10;37.10
2439;DHT22;14509;47.992;7.848;2022-08-04T07:03:25;30.20;36.90
2439;DHT22;14509;47.992;7.848;2022-08-04T07:05:27;30.30;36.90
2439;DHT22;14509;47.992;7.848;2022-08-04T07:07:29;30.40;36.70
2439;DHT22;14509;47.992;7.848;2022-08-04T07:09:31;30.40;36.50
2439;DHT22;14509;47.992;7.848;2022-08-04T07:11:33;30.70;36.50
2439;DHT22;14509;47.992;7.848;2022-08-04T07:13:36;30.60;36.30
2439;DHT22;14509;47.992;7.848;2022-08-04T07:15:41;30.70;36.20
2439;DHT22;14509;47.992;7.848;2022-08-04T07:17:46;30.80;36.10
2439;DHT22;14509;47.992;7.848;2022-08-04T07:19:50;30.90;35.90
2439;DHT22;14509;47.992;7.848;2022-08-04T07:21:52;31.00;35.40
2439;DHT22;14509;47.992;7.848;2022-08-04T07:23:54;31.10;35.30
2439;DHT22;14509;47.992;7.848;2022-08-04T07:25:56;31.20;34.60
2439;DHT22;14509;47.992;7.848;2022-08-04T07:27:58;31.30;34.40
2439;DHT22;14509;47.992;7.848;2022-08-04T07:30:00;31.30;34.20
2439;DHT22;14509;47.992;7.848;2022-08-04T07:32:04;31.40;34.10
2439;DHT22;14509;47.992;7.848;2022-08-04T07:34:08;31.50;34.00
2439;DHT22;14509;47.992;7.848;2022-08-04T07:36:11;31.70;34.00
2439;DHT22;14509;47.992;7.848;2022-08-04T07:38:13;31.70;33.80
2439;DHT22;14509;47.992;7.848;2022-08-04T07:40:15;31.80;33.80
2439;DHT22;14509;47.992;7.848;2022-08-04T07:42:18;31.90;33.70
2439;DHT22;14509;47.992;7.848;2022-08-04T07:44:20;32.00;33.50
2439;DHT22;14509;47.992;7.848;2022-08-04T07:46:23;32.10;33.20
2439;DHT22;14509;47.992;7.848;2022-08-04T07:48:25;32.10;33.10
2439;DHT22;14509;47.992;7.848;2022-08-04T07:50:29;32.20;32.90
2439;DHT22;14509;47.992;7.848;2022-08-04T07:52:33;32.30;32.70
2439;DHT22;14509;47.992;7.848;2022-08-04T07:54:35;32.50;32.90
2439;DHT22;14509;47.992;7.848;2022-08-04T07:56:40;32.50;33.00
2439;DHT22;14509;47.992;7.848;2022-08-04T07:58:42;32.60;32.20
2439;DHT22;14509;47.992;7.848;2022-08-04T08:00:44;32.70;32.10
2439;DHT22;14509;47.992;7.848;2022-08-04T08:02:49;32.70;31.80
2439;DHT22;14509;47.992;7.848;2022-08-04T08:04:51;32.90;31.70
2439;DHT22;14509;47.992;7.848;2022-08-04T08:06:56;33.00;31.50
2439;DHT22;14509;47.992;7.848;2022-08-04T08:08:58;33.10;31.40
2439;DHT22;14509;47.992;7.848;2022-08-04T08:11:01;33.20;31.30
2439;DHT22;14509;47.992;7.848;2022-08-04T08:13:03;33.30;31.00
2439;DHT22;14509;47.992;7.848;2022-08-04T08:15:07;33.30;31.00
2439;DHT22;14509;47.992;7.848;2022-08-04T08:17:09;33.50;31.00
2439;DHT22;14509;47.992;7.848;2022-08-04T08:19:12;33.60;30.60
2439;DHT22;14509;47.992;7.848;2022-08-04T08:21:14;33.60;30.70
2439;DHT22;14509;47.992;7.848;2022-08-04T08:23:18;33.70;30.60
2439;DHT22;14509;47.992;7.848;2022-08-04T08:25:20;33.80;30.60
2439;DHT22;14509;47.992;7.848;2022-08-04T08:27:22;33.90;30.50
2439;DHT22;14509;47.992;7.848;2022-08-04T08:29:25;34.00;30.40
2439;DHT22;14509;47.992;7.848;2022-08-04T08:31:26;34.00;30.30
2439;DHT22;14509;47.992;7.848;2022-08-04T08:33:28;34.10;30.00
2439;DHT22;14509;47.992;7.848;2022-08-04T08:35:36;34.20;29.90
2439;DHT22;14509;47.992;7.848;2022-08-04T08:37:43;34.30;30.00
2439;DHT22;14509;47.992;7.848;2022-08-04T08:39:52;34.40;30.00
2439;DHT22;14509;47.992;7.848;2022-08-04T08:42:18;34.50;29.80
2439;DHT22;14509;47.992;7.848;2022-08-04T08:47:07;34.60;29.70
2439;DHT22;14509;47.992;7.848;2022-08-04T08:49:39;34.70;29.40
2439;DHT22;14509;47.992;7.848;2022-08-04T08:52:13;34.80;29.40
2439;DHT22;14509;47.992;7.848;2022-08-04T08:54:43;34.90;29.30
2439;DHT22;14509;47.992;7.848;2022-08-04T08:56:58;35.00;29.10
2439;DHT22;14509;47.992;7.848;2022-08-04T08:59:26;35.10;29.10
2439;DHT22;14509;47.992;7.848;2022-08-04T09:01:41;35.20;29.00
2439;DHT22;14509;47.992;7.848;2022-08-04T09:04:25;35.30;28.80
2439;DHT22;14509;47.992;7.848;2022-08-04T09:06:58;35.40;28.50
2439;DHT22;14509;47.992;7.848;2022-08-04T09:09:15;35.50;28.20
2439;DHT22;14509;47.992;7.848;2022-08-04T09:11:21;35.60;28.20
2439;DHT22;14509;47.992;7.848;2022-08-04T09:13:32;35.60;28.10
2439;DHT22;14509;47.992;7.848;2022-08-04T09:15:38;35.80;27.80
2439;DHT22;14509;47.992;7.848;2022-08-04T09:17:46;35.80;27.70
2439;DHT22;14509;47.992;7.848;2022-08-04T09:19:52;35.90;27.80
2439;DHT22;14509;47.992;7.848;2022-08-04T09:22:00;36.00;27.60
2439;DHT22;14509;47.992;7.848;2022-08-04T09:24:08;36.00;27.30
2439;DHT22;14509;47.992;7.848;2022-08-04T09:26:20;36.10;27.10
2439;DHT22;14509;47.992;7.848;2022-08-04T09:28:34;36.30;27.30
2439;DHT22;14509;47.992;7.848;2022-08-04T09:30:56;36.30;27.40
2439;DHT22;14509;47.992;7.848;2022-08-04T09:33:09;36.40;27.50
2439;DHT22;14509;47.992;7.848;2022-08-04T09:35:22;36.50;27.30
2439;DHT22;14509;47.992;7.848;2022-08-04T09:37:37;36.50;27.00
2439;DHT22;14509;47.992;7.848;2022-08-04T09:39:47;36.50;26.60
2439;DHT22;14509;47.992;7.848;2022-08-04T09:41:58;36.60;26.90
2439;DHT22;14509;47.992;7.848;2022-08-04T09:44:14;36.70;26.80
2439;DHT22;14509;47.992;7.848;2022-08-04T09:46:22;36.80;26.60
2439;DHT22;14509;47.992;7.848;2022-08-04T09:48:33;36.90;26.30
2439;DHT22;14509;47.992;7.848;2022-08-04T09:50:38;37.00;26.30
2439;DHT22;14509;47.992;7.848;2022-08-04T09:52:47;37.00;26.20
2439;DHT22;14509;47.992;7.848;2022-08-04T09:54:55;37.10;25.70
2439;DHT22;14509;47.992;7.848;2022-08-04T09:57:06;37.10;25.70
2439;DHT22;14509;47.992;7.848;2022-08-04T09:59:18;37.20;25.90
2439;DHT22;14509;47.992;7.848;2022-08-04T10:01:24;37.20;25.50
2439;DHT22;14509;47.992;7.848;2022-08-04T10:03:32;37.30;24.50
2439;DHT22;14509;47.992;7.848;2022-08-04T10:05:47;37.30;24.50
2439;DHT22;14509;47.992;7.848;2022-08-04T10:08:03;37.40;24.40
2439;DHT22;14509;47.992;7.848;2022-08-04T10:10:19;37.50;24.80
2439;DHT22;14509;47.992;7.848;2022-08-04T10:12:30;37.50;24.70
2439;DHT22;14509;47.992;7.848;2022-08-04T10:14:40;37.40;24.40
2439;DHT22;14509;47.992;7.848;2022-08-04T10:16:55;37.60;23.90
2439;DHT22;14509;47.992;7.848;2022-08-04T10:19:04;37.70;24.00
2439;DHT22;14509;47.992;7.848;2022-08-04T10:21:13;37.70;23.60
2439;DHT22;14509;47.992;7.848;2022-08-04T10:23:26;37.70;22.90
2439;DHT22;14509;47.992;7.848;2022-08-04T10:25:44;37.70;22.50
2439;DHT22;14509;47.992;7.848;2022-08-04T10:27:53;37.80;22.50
2439;DHT22;14509;47.992;7.848;2022-08-04T10:30:02;37.90;22.70
2439;DHT22;14509;47.992;7.848;2022-08-04T10:32:15;37.90;22.60
2439;DHT22;14509;47.992;7.848;2022-08-04T10:34:21;37.90;22.40
2439;DHT22;14509;47.992;7.848;2022-08-04T10:36:29;38.00;22.50
2439;DHT22;14509;47.992;7.848;2022-08-04T10:38:37;38.00;22.50
2439;DHT22;14509;47.992;7.848;2022-08-04T10:40:45;38.00;22.40
2439;DHT22;14509;47.992;7.848;2022-08-04T10:42:56;38.00;22.20
2439;DHT22;14509;47.992;7.848;2022-08-04T10:45:08;38.00;22.00
2439;DHT22;14509;47.992;7.848;2022-08-04T10:47:16;38.10;21.80
2439;DHT22;14509;47.992;7.848;2022-08-04T10:49:26;38.10;21.80
2439;DHT22;14509;47.992;7.848;2022-08-04T10:51:35;38.20;21.90
2439;DHT22;14509;47.992;7.848;2022-08-04T10:53:41;38.20;22.00
2439;DHT22;14509;47.992;7.848;2022-08-04T10:55:48;38.30;22.50
2439;DHT22;14509;47.992;7.848;2022-08-04T10:57:56;38.40;21.90
2439;DHT22;14509;47.992;7.848;2022-08-04T11:00:04;38.40;22.00
2439;DHT22;14509;47.992;7.848;2022-08-04T11:02:29;38.50;21.50
2439;DHT22;14509;47.992;7.848;2022-08-04T11:04:39;38.50;21.50
2439;DHT22;14509;47.992;7.848;2022-08-04T11:06:42;38.60;21.50
2439;DHT22;14509;47.992;7.848;2022-08-04T11:08:50;38.60;21.30
2439;DHT22;14509;47.992;7.848;2022-08-04T11:11:00;38.60;21.60
2439;DHT22;14509;47.992;7.848;2022-08-04T11:13:07;38.60;21.40
2439;DHT22;14509;47.992;7.848;2022-08-04T11:15:19;38.60;21.50
2439;DHT22;14509;47.992;7.848;2022-08-04T11:17:25;38.60;21.30
2439;DHT22;14509;47.992;7.848;2022-08-04T11:19:32;38.60;20.70
2439;DHT22;14509;47.992;7.848;2022-08-04T11:21:40;38.70;20.90
2439;DHT22;14509;47.992;7.848;2022-08-04T11:23:46;38.70;21.00
2439;DHT22;14509;47.992;7.848;2022-08-04T11:25:56;38.80;20.70
2439;DHT22;14509;47.992;7.848;2022-08-04T11:28:03;38.80;20.60
2439;DHT22;14509;47.992;7.848;2022-08-04T11:30:12;38.80;20.60
2439;DHT22;14509;47.992;7.848;2022-08-04T11:32:19;38.90;20.60
2439;DHT22;14509;47.992;7.848;2022-08-04T11:34:22;38.90;20.60
2439;DHT22;14509;47.992;7.848;2022-08-04T11:36:31;38.90;20.20
2439;DHT22;14509;47.992;7.848;2022-08-04T11:38:39;39.00;19.80
2439;DHT22;14509;47.992;7.848;2022-08-04T11:40:48;39.00;19.80
2439;DHT22;14509;47.992;7.848;2022-08-04T11:42:55;39.00;19.90
2439;DHT22;14509;47.992;7.848;2022-08-04T11:45:00;39.00;20.00
2439;DHT22;14509;47.992;7.848;2022-08-04T11:47:10;39.00;20.00
2439;DHT22;14509;47.992;7.848;2022-08-04T11:49:23;39.00;20.20
2439;DHT22;14509;47.992;7.848;2022-08-04T11:51:27;39.00;20.10
2439;DHT22;14509;47.992;7.848;2022-08-04T11:53:31;39.00;20.00
2439;DHT22;14509;47.992;7.848;2022-08-04T11:55:36;39.00;20.00
2439;DHT22;14509;47.992;7.848;2022-08-04T11:57:39;39.00;20.60
2439;DHT22;14509;47.992;7.848;2022-08-04T11:59:41;39.10;20.70
2439;DHT22;14509;47.992;7.848;2022-08-04T12:01:51;39.10;20.30
2439;DHT22;14509;47.992;7.848;2022-08-04T12:04:07;39.20;20.30
2439;DHT22;14509;47.992;7.848;2022-08-04T12:06:16;39.20;20.20
2439;DHT22;14509;47.992;7.848;2022-08-04T12:08:50;39.20;20.20
2439;DHT22;14509;47.992;7.848;2022-08-04T12:11:04;39.30;19.80
2439;DHT22;14509;47.992;7.848;2022-08-04T12:13:19;39.30;19.70
2439;DHT22;14509;47.992;7.848;2022-08-04T12:15:28;39.30;19.60
2439;DHT22;14509;47.992;7.848;2022-08-04T12:17:35;39.40;19.80
2439;DHT22;14509;47.992;7.848;2022-08-04T12:19:45;39.40;19.70
2439;DHT22;14509;47.992;7.848;2022-08-04T12:21:51;39.40;19.80
2439;DHT22;14509;47.992;7.848;2022-08-04T12:24:00;39.50;19.90
2439;DHT22;14509;47.992;7.848;2022-08-04T12:26:06;39.50;20.00
2439;DHT22;14509;47.992;7.848;2022-08-04T12:28:13;39.60;20.10
2439;DHT22;14509;47.992;7.848;2022-08-04T12:30:18;39.70;20.20
2439;DHT22;14509;47.992;7.848;2022-08-04T12:32:24;39.70;19.40
2439;DHT22;14509;47.992;7.848;2022-08-04T12:34:33;39.90;19.30
2439;DHT22;14509;47.992;7.848;2022-08-04T12:36:42;39.80;19.30
2439;DHT22;14509;47.992;7.848;2022-08-04T12:38:48;39.90;19.20
2439;DHT22;14509;47.992;7.848;2022-08-04T12:40:55;39.90;19.10
2439;DHT22;14509;47.992;7.848;2022-08-04T12:43:09;39.90;19.30
2439;DHT22;14509;47.992;7.848;2022-08-04T12:45:13;40.00;19.20
2439;DHT22;14509;47.992;7.848;2022-08-04T12:47:17;40.00;19.40
2439;DHT22;14509;47.992;7.848;2022-08-04T12:49:23;40.00;19.00
2439;DHT22;14509;47.992;7.848;2022-08-04T12:51:27;40.00;18.90
2439;DHT22;14509;47.992;7.848;2022-08-04T12:53:33;40.00;19.10
2439;DHT22;14509;47.992;7.848;2022-08-04T12:55:37;40.00;19.10
2439;DHT22;14509;47.992;7.848;2022-08-04T12:57:47;40.10;19.10
2439;DHT22;14509;47.992;7.848;2022-08-04T12:59:50;40.20;19.80
2439;DHT22;14509;47.992;7.848;2022-08-04T13:01:53;40.30;19.30
2439;DHT22;14509;47.992;7.848;2022-08-04T13:04:01;40.30;19.60
2439;DHT22;14509;47.992;7.848;2022-08-04T13:06:06;40.50;19.30
2439;DHT22;14509;47.992;7.848;2022-08-04T13:08:10;40.60;19.10
2439;DHT22;14509;47.992;7.848;2022-08-04T13:10:17;40.70;18.80
2439;DHT22;14509;47.992;7.848;2022-08-04T13:12:23;40.90;18.90
2439;DHT22;14509;47.992;7.848;2022-08-04T13:14:30;41.10;18.80
2439;DHT22;14509;47.992;7.848;2022-08-04T13:16:34;41.30;18.50
2439;DHT22;14509;47.992;7.848;2022-08-04T13:18:38;41.50;18.20
2439;DHT22;14509;47.992;7.848;2022-08-04T13:20:41;41.80;18.10
2439;DHT22;14509;47.992;7.848;2022-08-04T13:22:44;42.10;17.80
2439;DHT22;14509;47.992;7.848;2022-08-04T13:24:49;42.40;17.70
2439;DHT22;14509;47.992;7.848;2022-08-04T13:26:56;42.80;17.40
2439;DHT22;14509;47.992;7.848;2022-08-04T13:29:01;43.20;17.30
2439;DHT22;14509;47.992;7.848;2022-08-04T13:31:06;43.60;17.00
2439;DHT22;14509;47.992;7.848;2022-08-04T13:33:08;44.10;16.60
2439;DHT22;14509;47.992;7.848;2022-08-04T13:35:12;44.50;16.40
2439;DHT22;14509;47.992;7.848;2022-08-04T13:37:15;44.90;16.20
2439;DHT22;14509;47.992;7.848;2022-08-04T13:39:21;45.20;16.00
2439;DHT22;14509;47.992;7.848;2022-08-04T13:41:24;45.60;15.50
2439;DHT22;14509;47.992;7.848;2022-08-04T13:43:31;45.90;15.30
2439;DHT22;14509;47.992;7.848;2022-08-04T13:45:34;46.10;15.10
2439;DHT22;14509;47.992;7.848;2022-08-04T13:47:39;46.30;15.10
2439;DHT22;14509;47.992;7.848;2022-08-04T13:49:41;46.60;15.10
2439;DHT22;14509;47.992;7.848;2022-08-04T13:51:47;46.90;14.90
2439;DHT22;14509;47.992;7.848;2022-08-04T13:53:55;47.20;14.70
2439;DHT22;14509;47.992;7.848;2022-08-04T13:55:58;47.60;14.60
2439;DHT22;14509;47.992;7.848;2022-08-04T13:58:04;47.90;14.40
2439;DHT22;14509;47.992;7.848;2022-08-04T14:00:10;48.20;14.50
2439;DHT22;14509;47.992;7.848;2022-08-04T14:02:25;48.50;14.40
2439;DHT22;14509;47.992;7.848;2022-08-04T14:04:31;49.00;14.10
2439;DHT22;14509;47.992;7.848;2022-08-04T14:06:43;49.40;13.90
2439;DHT22;14509;47.992;7.848;2022-08-04T14:08:53;49.70;13.30
2439;DHT22;14509;47.992;7.848;2022-08-04T14:10:56;49.80;13.20
2439;DHT22;14509;47.992;7.848;2022-08-04T14:12:58;50.00;13.20
2439;DHT22;14509;47.992;7.848;2022-08-04T14:15:00;50.20;13.10
2439;DHT22;14509;47.992;7.848;2022-08-04T14:17:05;50.50;13.10
2439;DHT22;14509;47.992;7.848;2022-08-04T14:19:08;50.70;13.00
2439;DHT22;14509;47.992;7.848;2022-08-04T14:21:11;50.80;12.80